createdAt,value
2022-11-15T00:01:43.678Z,100708.69
2022-11-15T00:04:13.921Z,100711.72
2022-11-15T00:06:43.330Z,100707.09
2022-11-15T00:09:12.956Z,100708.78
2022-11-15T00:11:44.968Z,100714.78
2022-11-15T00:14:14.339Z,100711.25
2022-11-15T00:16:43.740Z,100711.13
2022-11-15T00:19:13.295Z,100698.16
2022-11-15T00:21:42.652Z,100706.59
2022-11-15T00:24:12.397Z,100708.38
2022-11-15T00:26:41.801Z,100701.66
2022-11-15T00:29:13.765Z,100707.78
2022-11-15T00:31:43.230Z,100707.00
2022-11-15T00:34:13.223Z,100707.19
2022-11-15T00:36:42.717Z,100713.78
2022-11-15T00:39:12.328Z,100708.69
2022-11-15T00:41:41.952Z,100716.84
2022-11-15T00:44:13.976Z,100717.28
2022-11-15T00:46:43.344Z,100714.56
2022-11-15T00:49:12.764Z,100709.56
2022-11-15T00:51:42.167Z,100712.03
2022-11-15T00:54:11.586Z,100715.84
2022-11-15T00:56:40.957Z,100714.47
2022-11-15T00:59:10.389Z,100718.91
2022-11-15T01:01:42.426Z,100712.47
2022-11-15T01:04:11.798Z,100713.00
2022-11-15T01:06:41.271Z,100722.63
2022-11-15T01:09:10.665Z,100716.13
2022-11-15T01:11:40.056Z,100721.56
2022-11-15T01:14:09.528Z,100718.78
2022-11-15T01:16:38.918Z,100720.56
2022-11-15T01:19:10.925Z,100718.19
2022-11-15T01:21:40.313Z,100716.34
2022-11-15T01:24:10.150Z,100716.03
2022-11-15T01:26:39.516Z,100723.03
2022-11-15T01:29:08.977Z,100717.53
2022-11-15T01:31:39.068Z,100718.13
2022-11-15T01:34:11.038Z,100711.72
2022-11-15T01:36:40.608Z,100709.94
2022-11-15T01:39:10.016Z,100706.59
2022-11-15T01:41:39.746Z,100712.97
2022-11-15T01:44:38.304Z,100704.34
2022-11-15T01:47:12.886Z,100709.78
2022-11-15T01:49:50.829Z,100713.41
2022-11-15T01:52:23.073Z,100709.94
2022-11-15T01:54:55.847Z,100708.56
2022-11-15T01:57:25.299Z,100706.91
2022-11-15T01:59:54.761Z,100719.88
2022-11-15T02:02:24.276Z,100724.28
2022-11-15T02:04:56.425Z,100717.72
2022-11-15T02:07:26.076Z,100702.38
2022-11-15T02:09:56.516Z,100700.91
2022-11-15T02:12:26.355Z,100690.09
2022-11-15T02:14:57.320Z,100684.97
2022-11-15T02:17:36.619Z,100696.75
2022-11-15T02:20:38.940Z,100690.88
2022-11-15T02:23:38.207Z,100686.31
2022-11-15T02:26:28.426Z,100698.03
2022-11-15T02:29:03.271Z,100691.84
2022-11-15T02:31:40.274Z,100691.03
2022-11-15T02:34:13.112Z,100681.59
2022-11-15T02:36:47.644Z,100687.31
2022-11-15T02:39:24.970Z,100676.78
2022-11-15T02:41:58.218Z,100671.50
2022-11-15T02:44:28.022Z,100680.25
2022-11-15T02:47:14.989Z,100674.06
2022-11-15T02:49:47.008Z,100666.88
2022-11-15T02:52:18.735Z,100676.78
2022-11-15T02:54:57.160Z,100674.88
2022-11-15T02:57:36.115Z,100665.84
2022-11-15T03:00:09.525Z,100664.38
2022-11-15T03:03:01.354Z,100664.97
2022-11-15T03:05:37.505Z,100665.63
2022-11-15T03:08:12.136Z,100662.78
2022-11-15T03:10:48.555Z,100661.13
2022-11-15T03:13:26.450Z,100665.84
2022-11-15T03:16:01.582Z,100674.16
2022-11-15T03:18:36.751Z,100672.72
2022-11-15T03:21:09.687Z,100668.22
2022-11-15T03:23:40.587Z,100669.69
2022-11-15T03:26:12.955Z,100670.97
2022-11-15T03:28:44.493Z,100669.97
2022-11-15T03:31:31.047Z,100668.03
2022-11-15T03:34:03.601Z,100669.94
2022-11-15T03:36:34.522Z,100672.81
2022-11-15T03:39:06.659Z,100667.00
2022-11-15T03:41:39.854Z,100669.53
2022-11-15T03:44:15.842Z,100658.34
2022-11-15T03:46:50.289Z,100653.06
2022-11-15T03:49:26.931Z,100653.25
2022-11-15T03:51:56.395Z,100650.81
2022-11-15T03:54:25.955Z,100650.34
2022-11-15T03:56:55.382Z,100646.78
2022-11-15T03:59:25.110Z,100654.47
2022-11-15T04:01:54.625Z,100650.75
2022-11-15T04:04:26.741Z,100660.16
2022-11-15T04:06:56.238Z,100652.16
2022-11-15T04:09:25.667Z,100659.16
2022-11-15T04:11:55.132Z,100652.53
2022-11-15T04:14:24.523Z,100650.78
2022-11-15T04:16:53.895Z,100645.16
2022-11-15T04:19:38.422Z,100653.97
2022-11-15T04:22:20.251Z,100652.31
2022-11-15T04:24:49.651Z,100647.59
2022-11-15T04:27:19.022Z,100655.06
2022-11-15T04:29:48.392Z,100664.00
2022-11-15T04:32:17.857Z,100677.50
2022-11-15T04:34:49.797Z,100687.22
2022-11-15T04:37:19.230Z,100685.34
2022-11-15T04:39:48.626Z,100678.69
2022-11-15T04:42:18.013Z,100688.19
2022-11-15T04:44:47.423Z,100696.91
2022-11-15T04:47:16.843Z,100689.09
2022-11-15T04:49:48.800Z,100686.94
2022-11-15T04:52:18.207Z,100686.81
2022-11-15T04:54:47.609Z,100692.91
2022-11-15T04:57:17.941Z,100692.91
2022-11-15T04:59:47.693Z,100679.84
2022-11-15T05:02:17.132Z,100681.03
2022-11-15T05:04:46.530Z,100674.97
2022-11-15T05:07:16.007Z,100676.91
2022-11-15T05:09:45.427Z,100667.25
2022-11-15T05:12:14.848Z,100668.25
2022-11-15T05:14:44.255Z,100663.03
2022-11-15T05:17:13.621Z,100664.31
2022-11-15T05:19:43.115Z,100666.88
2022-11-15T05:22:15.386Z,100660.50
2022-11-15T05:24:44.844Z,100660.91
2022-11-15T05:27:14.272Z,100658.88
2022-11-15T05:29:43.711Z,100655.66
2022-11-15T05:32:13.613Z,100657.97
2022-11-15T05:34:43.057Z,100638.53
2022-11-15T05:37:15.086Z,100644.22
2022-11-15T05:39:44.463Z,100650.56
2022-11-15T05:42:16.002Z,100656.88
2022-11-15T05:44:47.792Z,100650.16
2022-11-15T05:47:20.479Z,100646.81
2022-11-15T05:49:51.923Z,100644.47
2022-11-15T05:52:26.167Z,100632.06
2022-11-15T05:54:56.466Z,100635.50
2022-11-15T05:57:25.919Z,100638.31
2022-11-15T05:59:55.697Z,100637.44
2022-11-15T06:02:25.159Z,100637.66
2022-11-15T06:04:54.649Z,100631.69
2022-11-15T06:07:26.742Z,100638.16
2022-11-15T06:09:56.201Z,100634.81
2022-11-15T06:12:25.851Z,100632.94
2022-11-15T06:14:55.299Z,100627.50
2022-11-15T06:17:24.700Z,100639.88
2022-11-15T06:19:54.153Z,100640.41
2022-11-15T06:22:29.308Z,100640.50
2022-11-15T06:25:04.060Z,100635.91
2022-11-15T06:27:34.978Z,100639.84
2022-11-15T06:30:04.396Z,100639.25
2022-11-15T06:32:34.190Z,100632.31
2022-11-15T06:35:03.648Z,100635.72
2022-11-15T06:37:37.263Z,100636.09
2022-11-15T06:40:07.384Z,100639.91
2022-11-15T06:42:36.776Z,100635.78
2022-11-15T06:45:07.008Z,100641.66
2022-11-15T06:47:36.458Z,100647.72
2022-11-15T06:50:05.969Z,100648.91
2022-11-15T06:52:38.735Z,100653.00
2022-11-15T06:55:09.494Z,100654.34
2022-11-15T06:57:39.627Z,100649.59
2022-11-15T07:00:10.812Z,100645.78
2022-11-15T07:02:40.180Z,100655.06
2022-11-15T07:05:10.729Z,100667.94
2022-11-15T07:07:42.871Z,100670.88
2022-11-15T07:10:13.147Z,100670.97
2022-11-15T07:12:42.582Z,100676.31
2022-11-15T07:15:13.317Z,100676.16
2022-11-15T07:17:42.738Z,100666.03
2022-11-15T07:20:12.798Z,100681.03
2022-11-15T07:22:46.180Z,100684.06
2022-11-15T07:25:15.659Z,100671.75
2022-11-15T07:27:45.254Z,100679.69
2022-11-15T07:30:16.296Z,100689.41
2022-11-15T07:32:45.892Z,100687.66
2022-11-15T07:35:15.393Z,100692.19
2022-11-15T07:37:47.349Z,100698.69
2022-11-15T07:40:16.897Z,100697.94
2022-11-15T07:42:58.189Z,100699.75
2022-11-15T07:45:29.450Z,100706.16
2022-11-15T07:47:59.486Z,100706.16
2022-11-15T07:50:30.122Z,100705.84
2022-11-15T07:53:03.375Z,100709.66
2022-11-15T07:55:32.932Z,100711.06
2022-11-15T07:58:06.148Z,100711.84
2022-11-15T08:00:36.203Z,100708.88
2022-11-15T08:03:06.881Z,100709.38
2022-11-15T08:05:36.740Z,100705.69
2022-11-15T08:08:09.328Z,100709.25
2022-11-15T08:10:40.883Z,100703.91
2022-11-15T08:13:12.204Z,100694.59
2022-11-15T08:15:41.829Z,100689.34
2022-11-15T08:18:18.047Z,100698.53
2022-11-15T08:20:47.609Z,100694.81
2022-11-15T08:23:19.783Z,100702.19
2022-11-15T08:25:49.524Z,100701.63
2022-11-15T08:28:20.317Z,100698.97
2022-11-15T08:30:49.809Z,100696.50
2022-11-15T08:33:19.372Z,100701.88
2022-11-15T08:35:48.999Z,100698.97
2022-11-15T08:38:20.959Z,100718.97
2022-11-15T08:40:50.570Z,100713.84
2022-11-15T08:43:20.073Z,100710.03
2022-11-15T08:45:49.591Z,100710.81
2022-11-15T08:48:19.106Z,100713.28
2022-11-15T08:50:48.619Z,100714.34
2022-11-15T08:53:21.195Z,100714.00
2022-11-15T08:55:50.844Z,100716.31
2022-11-15T08:58:20.349Z,100731.88
2022-11-15T09:00:49.849Z,100738.72
2022-11-15T09:03:19.326Z,100737.97
2022-11-15T09:05:48.840Z,100744.50
2022-11-15T09:08:48.219Z,100743.13
2022-11-15T09:11:11.728Z,100753.56
2022-11-15T09:13:41.227Z,100745.75
2022-11-15T09:16:13.072Z,100745.75
2022-11-15T09:18:42.548Z,100750.31
2022-11-15T09:21:12.543Z,100744.53
2022-11-15T09:23:44.583Z,100740.41
2022-11-15T09:26:14.132Z,100738.66
2022-11-15T09:28:43.988Z,100743.31
2022-11-15T09:31:16.832Z,100741.72
2022-11-15T09:33:50.555Z,100736.91
2022-11-15T09:36:20.539Z,100743.13
2022-11-15T09:38:52.533Z,100739.84
2022-11-15T09:41:33.133Z,100746.63
2022-11-15T09:44:12.654Z,100738.72
2022-11-15T09:46:50.393Z,100742.47
2022-11-15T09:49:20.177Z,100743.72
2022-11-15T09:51:52.811Z,100746.03
2022-11-15T09:57:24.375Z,100741.91
2022-11-15T10:00:44.630Z,100738.72
2022-11-15T10:03:02.860Z,100739.31
2022-11-15T10:05:32.703Z,100743.00
2022-11-15T10:08:07.387Z,100736.03
2022-11-15T10:10:42.423Z,100749.28
2022-11-15T10:13:17.044Z,100739.34
2022-11-15T10:15:49.388Z,100729.78
2022-11-15T10:18:20.570Z,100735.50
2022-11-15T10:20:55.893Z,100741.84
2022-11-15T10:23:26.993Z,100736.47
2022-11-15T10:26:06.448Z,100732.03
2022-11-15T10:28:36.710Z,100728.25
2022-11-15T10:31:06.437Z,100724.56
2022-11-15T10:33:37.374Z,100727.00
2022-11-15T10:36:24.845Z,100731.16
2022-11-15T10:39:00.190Z,100720.56
2022-11-15T10:41:41.195Z,100714.81
2022-11-15T10:44:29.747Z,100708.56
2022-11-15T10:47:25.056Z,100707.75
2022-11-15T10:50:29.260Z,100699.72
2022-11-15T10:52:58.877Z,100711.81
2022-11-15T10:55:30.982Z,100701.25
2022-11-15T10:58:06.055Z,100701.53
2022-11-15T11:00:40.258Z,100694.75
2022-11-15T11:03:23.956Z,100694.25
2022-11-15T11:06:07.120Z,100700.59
2022-11-15T11:08:36.650Z,100696.50
2022-11-15T11:11:08.122Z,100687.97
2022-11-15T11:13:41.389Z,100680.47
2022-11-15T11:16:25.687Z,100676.38
2022-11-15T11:19:08.344Z,100670.66
2022-11-15T11:21:50.663Z,100669.13
2022-11-15T11:24:26.514Z,100665.13
2022-11-15T11:27:07.197Z,100664.53
2022-11-15T11:29:48.886Z,100670.84
2022-11-15T11:32:31.949Z,100666.75
2022-11-15T11:35:09.502Z,100663.41
2022-11-15T11:37:44.095Z,100660.84
2022-11-15T11:40:32.810Z,100653.38
2022-11-15T11:43:08.389Z,100652.94
2022-11-15T11:45:52.965Z,100661.72
2022-11-15T11:48:42.783Z,100652.00
2022-11-15T11:51:17.171Z,100658.03
2022-11-15T11:53:51.653Z,100647.00
2022-11-15T11:56:27.124Z,100643.59
2022-11-15T11:58:58.456Z,100630.81
2022-11-15T12:01:37.564Z,100634.22
2022-11-15T12:04:14.006Z,100635.97
2022-11-15T12:06:49.310Z,100642.06
2022-11-15T12:09:25.331Z,100624.03
2022-11-15T12:11:59.904Z,100635.56
2022-11-15T12:14:35.126Z,100634.78
2022-11-15T12:17:07.291Z,100628.00
2022-11-15T12:19:36.873Z,100623.84
2022-11-15T12:22:10.768Z,100615.03
2022-11-15T12:24:43.404Z,100611.78
2022-11-15T12:27:25.142Z,100612.41
2022-11-15T12:29:58.519Z,100614.28
2022-11-15T12:32:33.841Z,100610.50
2022-11-15T12:35:04.810Z,100609.63
2022-11-15T12:37:56.249Z,100613.19
2022-11-15T12:40:37.363Z,100633.03
2022-11-15T12:43:23.240Z,100610.47
2022-11-15T12:45:52.724Z,100612.34
2022-11-15T12:49:00.889Z,100621.25
2022-11-15T12:52:06.609Z,100615.88
2022-11-15T12:54:57.670Z,100614.09
2022-11-15T12:57:40.374Z,100611.09
2022-11-15T13:00:42.727Z,100611.72
2022-11-15T13:03:24.395Z,100607.00
2022-11-15T13:06:03.807Z,100614.44
2022-11-15T13:08:59.953Z,100603.81
2022-11-15T13:11:53.985Z,100596.97
2022-11-15T13:14:43.218Z,100601.47
2022-11-15T13:17:30.683Z,100600.13
2022-11-15T13:20:22.364Z,100604.25
2022-11-15T13:23:00.520Z,100589.53
2022-11-15T13:25:51.139Z,100596.25
2022-11-15T13:28:32.664Z,100599.56
2022-11-15T13:31:03.888Z,100601.66
2022-11-15T13:33:36.556Z,100590.34
2022-11-15T13:36:09.476Z,100578.94
2022-11-15T13:38:41.240Z,100589.03
2022-11-15T13:41:22.544Z,100592.38
2022-11-15T13:43:55.390Z,100585.00
2022-11-15T13:46:26.132Z,100588.50
2022-11-15T13:48:58.576Z,100581.06
2022-11-15T13:51:34.080Z,100573.75
2022-11-15T13:54:07.045Z,100560.81
2022-11-15T13:56:37.165Z,100557.00
2022-11-15T13:59:19.300Z,100556.84
2022-11-15T14:01:48.751Z,100562.88
2022-11-15T14:04:22.667Z,100560.59
2022-11-15T14:06:54.597Z,100565.41
2022-11-15T14:09:34.737Z,100570.19
2022-11-15T14:12:06.204Z,100568.16
2022-11-15T14:14:48.452Z,100561.38
2022-11-15T14:17:24.609Z,100565.19
2022-11-15T14:19:54.994Z,100565.88
2022-11-15T14:22:27.019Z,100558.59
2022-11-15T14:25:18.851Z,100560.13
2022-11-15T14:28:08.907Z,100551.22
2022-11-15T14:30:42.053Z,100540.69
2022-11-15T14:33:23.254Z,100542.97
2022-11-15T14:35:53.099Z,100534.38
2022-11-15T14:38:22.688Z,100537.53
2022-11-15T14:40:52.674Z,100542.34
2022-11-15T14:43:22.170Z,100535.59
2022-11-15T14:45:54.173Z,100540.44
2022-11-15T14:48:23.604Z,100544.53
2022-11-15T14:50:53.104Z,100548.13
2022-11-15T14:53:23.147Z,100544.91
2022-11-15T14:55:52.897Z,100547.25
2022-11-15T14:58:22.367Z,100543.66
2022-11-15T15:00:54.491Z,100539.75
2022-11-15T15:03:23.899Z,100535.53
2022-11-15T15:05:53.289Z,100529.84
2022-11-15T15:08:22.755Z,100524.63
2022-11-15T15:10:52.289Z,100526.31
2022-11-15T15:13:23.055Z,100536.38
2022-11-15T15:15:55.615Z,100530.28
2022-11-15T15:18:25.052Z,100522.69
2022-11-15T15:20:58.890Z,100524.72
2022-11-15T15:23:31.757Z,100526.09
2022-11-15T15:26:02.605Z,100521.56
2022-11-15T15:28:34.922Z,100516.31
2022-11-15T15:31:07.994Z,100512.56
2022-11-15T15:33:37.542Z,100521.50
2022-11-15T15:36:07.507Z,100517.03
2022-11-15T15:38:37.041Z,100514.31
2022-11-15T15:41:06.480Z,100511.25
2022-11-15T15:43:35.971Z,100504.00
2022-11-15T15:46:08.634Z,100506.97
2022-11-15T15:48:39.216Z,100506.13
2022-11-15T15:51:15.396Z,100501.94
2022-11-15T15:53:48.211Z,100493.88
2022-11-15T15:56:17.775Z,100500.44
2022-11-15T15:58:47.289Z,100495.91
2022-11-15T16:01:19.437Z,100492.19
2022-11-15T16:03:48.977Z,100484.16
2022-11-15T16:06:39.195Z,100485.50
2022-11-15T16:09:15.593Z,100480.66
2022-11-15T16:11:46.015Z,100473.81
2022-11-15T16:14:15.686Z,100473.38
2022-11-15T16:16:47.679Z,100471.34
2022-11-15T16:19:17.116Z,100467.50
2022-11-15T16:21:46.615Z,100462.06
2022-11-15T16:24:16.089Z,100450.78
2022-11-15T16:26:45.506Z,100449.38
2022-11-15T16:29:15.134Z,100438.47
2022-11-15T16:31:47.206Z,100432.31
2022-11-15T16:34:16.703Z,100419.47
2022-11-15T16:36:46.130Z,100412.56
2022-11-15T16:39:19.444Z,100409.91
2022-11-15T16:41:49.179Z,100391.84
2022-11-15T16:44:18.726Z,100391.00
2022-11-15T16:46:52.130Z,100389.34
2022-11-15T16:49:23.225Z,100379.13
2022-11-15T16:51:53.534Z,100366.25
2022-11-15T16:54:23.019Z,100361.97
2022-11-15T16:56:52.481Z,100361.97
2022-11-15T16:59:22.093Z,100366.38
2022-11-15T17:01:54.235Z,100362.88
2022-11-15T17:04:23.649Z,100358.53
2022-11-15T17:06:53.217Z,100350.13
2022-11-15T17:09:24.882Z,100352.66
2022-11-15T17:11:55.276Z,100351.63
2022-11-15T17:14:24.797Z,100342.13
2022-11-15T17:16:56.848Z,100342.03
2022-11-15T17:19:26.370Z,100339.38
2022-11-15T17:21:56.092Z,100340.28
2022-11-15T17:24:25.533Z,100331.59
2022-11-15T17:26:55.022Z,100324.53
2022-11-15T17:29:24.475Z,100328.22
2022-11-15T17:31:56.460Z,100326.59
2022-11-15T17:34:25.923Z,100328.47
2022-11-15T17:36:55.448Z,100334.66
2022-11-15T17:39:25.206Z,100339.66
2022-11-15T17:41:54.683Z,100336.50
2022-11-15T17:44:25.194Z,100331.06
2022-11-15T17:46:57.294Z,100330.91
2022-11-15T17:49:26.844Z,100331.72
2022-11-15T17:51:56.361Z,100329.16
2022-11-15T17:54:25.877Z,100322.06
2022-11-15T17:56:55.383Z,100319.34
2022-11-15T17:59:24.891Z,100324.44
2022-11-15T18:01:56.952Z,100318.44
2022-11-15T18:04:28.833Z,100313.41
2022-11-15T18:06:58.507Z,100309.25
2022-11-15T18:09:28.052Z,100305.94
2022-11-15T18:11:58.660Z,100306.75
2022-11-15T18:14:28.855Z,100303.28
2022-11-15T18:17:00.977Z,100293.91
2022-11-15T18:19:30.433Z,100291.50
2022-11-15T18:22:00.952Z,100288.06
2022-11-15T18:24:34.757Z,100289.91
2022-11-15T18:27:06.369Z,100291.59
2022-11-15T18:29:37.917Z,100289.91
2022-11-15T18:32:12.392Z,100289.09
2022-11-15T18:34:42.015Z,100283.03
2022-11-15T18:37:11.681Z,100284.88
2022-11-15T18:39:41.169Z,100281.47
2022-11-15T18:42:10.679Z,100275.50
2022-11-15T18:44:40.182Z,100275.66
2022-11-15T18:47:12.308Z,100266.03
2022-11-15T18:49:41.699Z,100262.53
2022-11-15T18:52:11.186Z,100254.94
2022-11-15T18:54:40.620Z,100260.91
2022-11-15T18:57:10.002Z,100261.72
2022-11-15T18:59:39.545Z,100261.84
2022-11-15T19:02:12.157Z,100260.31
2022-11-15T19:04:41.691Z,100261.22
2022-11-15T19:07:11.144Z,100261.16
2022-11-15T19:09:40.690Z,100267.03
2022-11-15T19:12:10.587Z,100260.22
2022-11-15T19:14:40.092Z,100267.09
2022-11-15T19:17:12.170Z,100268.09
2022-11-15T19:19:41.605Z,100266.44
2022-11-15T19:22:11.006Z,100268.09
2022-11-15T19:24:40.498Z,100278.53
2022-11-15T19:27:10.043Z,100278.53
2022-11-15T19:29:40.611Z,100290.66
2022-11-15T19:32:12.656Z,100295.91
2022-11-15T19:34:42.128Z,100291.59
2022-11-15T19:37:11.622Z,100290.66
2022-11-15T19:39:41.535Z,100286.44
2022-11-15T19:42:11.107Z,100277.06
2022-11-15T19:44:40.608Z,100275.81
2022-11-15T19:47:12.656Z,100271.44
2022-11-15T19:49:43.446Z,100278.50
2022-11-15T19:52:13.040Z,100289.56
2022-11-15T19:54:42.811Z,100299.72
2022-11-15T19:57:12.294Z,100311.75
2022-11-15T19:59:41.803Z,100313.59
2022-11-15T20:02:14.640Z,100314.19
2022-11-15T20:04:44.125Z,100324.38
2022-11-15T20:07:13.688Z,100322.56
2022-11-15T20:09:43.611Z,100325.94
2022-11-15T20:12:15.473Z,100326.09
2022-11-15T20:14:46.008Z,100328.53
2022-11-15T20:17:18.169Z,100333.34
2022-11-15T20:19:47.598Z,100334.66
2022-11-15T20:22:17.522Z,100335.44
2022-11-15T20:24:47.022Z,100349.19
2022-11-15T20:27:16.558Z,100342.88
2022-11-15T20:29:46.564Z,100346.09
2022-11-15T20:32:18.702Z,100346.66
2022-11-15T20:34:53.833Z,100346.56
2022-11-15T20:37:23.596Z,100348.94
2022-11-15T20:39:53.039Z,100346.06
2022-11-15T20:42:22.480Z,100343.41
2022-11-15T20:44:51.965Z,100342.06
2022-11-15T20:47:29.047Z,100346.94
2022-11-15T20:50:14.879Z,100340.81
2022-11-15T20:52:49.810Z,100340.34
2022-11-15T20:55:19.461Z,100342.59
2022-11-15T20:57:48.889Z,100339.72
2022-11-15T21:00:22.353Z,100338.66
2022-11-15T21:02:54.846Z,100343.75
2022-11-15T21:05:24.409Z,100335.91
2022-11-15T21:07:53.903Z,100327.28
2022-11-15T21:10:35.866Z,100321.22
2022-11-15T21:13:05.387Z,100313.44
2022-11-15T21:15:36.251Z,100315.94
2022-11-15T21:18:08.636Z,100322.81
2022-11-15T21:20:38.145Z,100324.47
2022-11-15T21:23:07.576Z,100317.56
2022-11-15T21:25:37.559Z,100315.69
2022-11-15T21:28:07.165Z,100307.13
2022-11-15T21:30:36.648Z,100306.34
2022-11-15T21:33:08.778Z,100304.56
2022-11-15T21:35:38.256Z,100305.38
2022-11-15T21:38:07.693Z,100295.84
2022-11-15T21:40:37.120Z,100300.25
2022-11-15T21:43:06.601Z,100309.47
2022-11-15T21:45:36.046Z,100299.06
2022-11-15T21:48:09.068Z,100299.00
2022-11-15T21:50:38.540Z,100305.88
2022-11-15T21:53:08.001Z,100297.16
2022-11-15T21:55:37.483Z,100307.44
2022-11-15T21:58:06.935Z,100308.28
2022-11-15T22:00:48.993Z,100307.41
2022-11-15T22:03:21.174Z,100298.81
2022-11-15T22:05:50.628Z,100296.09
2022-11-15T22:08:20.294Z,100290.94
2022-11-15T22:10:50.666Z,100292.59
2022-11-15T22:13:20.489Z,100293.47
2022-11-15T22:15:51.402Z,100290.69
2022-11-15T22:18:26.641Z,100293.16
2022-11-15T22:20:58.212Z,100296.72
2022-11-15T22:23:29.356Z,100282.94
2022-11-15T22:25:59.109Z,100288.81
2022-11-15T22:28:29.703Z,100291.25
2022-11-15T22:31:00.254Z,100281.59
2022-11-15T22:33:34.496Z,100279.88
2022-11-15T22:36:05.281Z,100277.13
2022-11-15T22:38:35.293Z,100279.50
2022-11-15T22:41:05.273Z,100279.31
2022-11-15T22:43:34.988Z,100282.75
2022-11-15T22:46:06.952Z,100280.88
2022-11-15T22:48:40.627Z,100267.78
2022-11-15T22:51:10.739Z,100264.16
2022-11-15T22:53:40.363Z,100257.13
2022-11-15T22:56:10.685Z,100256.13
2022-11-15T22:58:40.303Z,100256.03
2022-11-15T23:01:09.943Z,100257.34
2022-11-15T23:03:42.313Z,100257.88
2022-11-15T23:06:12.063Z,100266.97
2022-11-15T23:08:42.333Z,100250.53
2022-11-15T23:11:29.001Z,100254.66
2022-11-15T23:13:59.201Z,100256.13
2022-11-15T23:16:34.600Z,100259.28
2022-11-15T23:19:08.910Z,100245.59
2022-11-15T23:21:52.150Z,100250.56
2022-11-15T23:24:22.151Z,100245.16
2022-11-15T23:26:53.127Z,100241.59
2022-11-15T23:29:25.074Z,100234.50
2022-11-15T23:32:07.946Z,100227.59
2022-11-15T23:34:43.253Z,100230.75
2022-11-15T23:37:15.045Z,100226.44
2022-11-15T23:39:44.643Z,100212.44
2022-11-15T23:42:20.140Z,100208.19
2022-11-15T23:44:50.820Z,100209.06
2022-11-15T23:47:20.777Z,100200.47
2022-11-15T23:49:53.211Z,100204.41
2022-11-15T23:52:23.185Z,100198.25
2022-11-15T23:54:52.870Z,100188.56
2022-11-15T23:57:23.240Z,100186.81
2022-11-15T23:59:52.897Z,100172.16
